Araguacema, Brazil
Current Conditions -  °F | °C
As of 7:34 AM on Sunday 23 Nov 2014 (Local Time) from SBPJ Reporting Station
Thunderstorm Thunderstorm  
Wind Chill: 77°   Ceiling: 2500
Heat Index: 78°   Visibility: 0.62mi
Dew Point: 73°   Wind: 10mph
Humidity: 89%   Direction: 90°E
Pressure: 29.88"   Gusts: NA
Location:  8.8°S, 49.56°W
Report Text: SBPJ 231034Z 09009KT 1000 +TSRA FEW015 BKN025 FEW030CB OVC07025/23 Q1012
Loading
Personal Weather Stations






























Interactive Weather Map New forecast layout! Learn more

10-Day Weather Forecast

Advertisements
Track Severe Weather on mobile